Koen, Colorado
Current Conditions -  °F | °C
As of 11:53 AM on Thursday 23 Oct 2014 (Local Time) from KLAA Reporting Station
Clear Clear  
Wind Chill: 70°   Ceiling: Unl
Heat Index: 70°   Visibility: 10mi
Dew Point: 49°   Wind: 0mph
Humidity: 47%   Direction: NA
Pressure: 30.12"   Gusts: NA
Location:  37.8751°N, 102.389°W
Report Text: KLAA 231753Z AUTO 00000KT 10SM CLR 21/09 A3012 RMK AO2 SLP170 T02110094 10211 20050 58010
Loading
Personal Weather Stations






























Interactive Weather Map
Tropical Storm Tracking
New forecast layout! Learn more

10-Day Weather Forecast

Advertisements
Track Severe Weather on mobile